Time;durP1;ratioP1;P1;durP2;ratioP2;P2;SDS_P1;SDS_P2;PMS_P1;PMS_P2;Temp;Humidity;BMP_temperature;BMP_pressure;BME280_temperature;BME280_humidity;BME280_pressure;Samples;Min_cycle;Max_cycle;Signal;HPM_P1;HPM_P2
2023/08/07 00:00:42;;;;;;;0.65;0.65;;;;;;;13.72;100.00;99157.72;4853259;29;20037;-96
2023/08/07 00:03:08;;;;;;;0.35;0.20;;;;;;;13.90;100.00;99179.84;4852295;29;20049;-94
2023/08/07 00:05:33;;;;;;;0.00;0.00;;;;;;;13.79;100.00;99157.34;4854332;29;20085;-95
2023/08/07 00:07:59;;;;;;;0.00;0.00;;;;;;;13.79;100.00;99151.75;4849544;29;20136;-95
2023/08/07 00:10:25;;;;;;;0.57;0.40;;;;;;;13.79;100.00;99157.34;4851282;29;20113;-95
2023/08/07 00:12:51;;;;;;;0.20;0.20;;;;;;;13.99;100.00;99182.53;4862426;29;20067;-95
2023/08/07 00:15:16;;;;;;;0.00;0.00;;;;;;;13.92;100.00;99177.34;4850394;29;20033;-95
2023/08/07 00:17:42;;;;;;;0.00;0.00;;;;;;;13.80;100.00;99167.25;4843505;29;20053;-96
2023/08/07 00:20:08;;;;;;;5.30;0.40;;;;;;;13.74;100.00;99149.66;4858625;29;20579;-94
2023/08/07 00:22:34;;;;;;;0.00;0.00;;;;;;;13.79;100.00;99151.03;4860788;29;20056;-95
2023/08/07 00:25:00;;;;;;;0.20;0.20;;;;;;;13.96;100.00;99177.91;4849348;29;20037;-95
2023/08/07 00:27:25;;;;;;;0.05;0.05;;;;;;;13.79;100.00;99151.75;4849825;29;20045;-95
2023/08/07 00:29:51;;;;;;;0.13;0.13;;;;;;;13.83;100.00;99159.97;4845961;29;20053;-95
2023/08/07 00:32:17;;;;;;;0.00;0.00;;;;;;;13.84;100.00;99155.91;4848791;29;20131;-95
2023/08/07 00:34:43;;;;;;;0.10;0.10;;;;;;;13.80;100.00;99155.31;4850332;29;20041;-94
2023/08/07 00:37:09;;;;;;;0.00;0.00;;;;;;;13.74;100.00;99135.72;4865092;29;20104;-95
2023/08/07 00:39:34;;;;;;;0.00;0.00;;;;;;;13.78;100.00;99161.41;4861931;29;20065;-95
2023/08/07 00:42:00;;;;;;;0.25;0.25;;;;;;;13.99;100.00;99193.69;4869041;29;20053;-95
2023/08/07 00:44:31;;;;;;;0.43;0.32;;;;;;;13.79;100.00;99167.75;4856079;29;20113;-95
2023/08/07 00:57:43;;;;;;;0.00;0.00;;;;;;;13.64;100.00;99164.16;4872692;29;20058;-96
2023/08/07 01:00:11;;;;;;;0.00;0.00;;;;;;;13.85;100.00;99180.53;4853562;29;20106;-96
2023/08/07 01:02:37;;;;;;;0.00;0.00;;;;;;;13.55;100.00;99139.94;4838412;29;20038;-95
2023/08/07 01:05:04;;;;;;;0.00;0.00;;;;;;;13.80;100.00;99192.34;4848725;29;20067;-95
2023/08/07 01:07:30;;;;;;;0.00;0.00;;;;;;;13.60;100.00;99160.78;4842596;29;20038;-96
2023/08/07 01:09:57;;;;;;;0.05;0.05;;;;;;;13.83;100.00;99193.41;4840701;29;20046;-95
2023/08/07 01:12:45;;;;;;;0.63;0.05;;;;;;;13.51;100.00;99142.13;4855046;29;20117;-96
2023/08/07 01:15:16;;;;;;;0.03;0.03;;;;;;;13.56;100.00;99160.97;4828340;29;20030;-95
2023/08/07 01:17:43;;;;;;;0.00;0.00;;;;;;;13.38;100.00;99141.66;4860228;29;20061;-96
2023/08/07 01:20:09;;;;;;;0.47;0.30;;;;;;;13.41;100.00;99160.19;4843696;29;20061;-95
2023/08/07 01:22:37;;;;;;;0.10;0.10;;;;;;;13.52;100.00;99182.69;4836530;29;20141;-95
2023/08/07 01:25:03;;;;;;;0.32;0.32;;;;;;;13.58;100.00;99186.34;4835829;29;20050;-96
2023/08/07 01:27:36;;;;;;;0.15;0.15;;;;;;;13.81;100.00;99223.75;4834588;29;20527;-96
2023/08/07 01:30:30;;;;;;;0.20;0.10;;;;;;;13.63;100.00;99216.31;4833354;29;20063;-96
2023/08/07 01:33:10;;;;;;;0.00;0.00;;;;;;;13.69;100.00;99220.00;4821182;29;20581;-95
2023/08/07 01:35:41;;;;;;;0.00;0.00;;;;;;;13.66;100.00;99218.19;4833530;29;20090;-96
2023/08/07 01:38:07;;;;;;;0.15;0.15;;;;;;;13.37;100.00;99181.88;4835152;29;20125;-96
2023/08/07 01:40:34;;;;;;;0.03;0.03;;;;;;;13.41;100.00;99177.69;4848564;29;20488;-96
2023/08/07 01:43:00;;;;;;;0.00;0.00;;;;;;;13.29;100.00;99164.00;4839858;29;20041;-96
2023/08/07 01:45:28;;;;;;;0.00;0.00;;;;;;;13.31;100.00;99162.28;4837792;29;20041;-95
2023/08/07 01:47:54;;;;;;;0.00;0.00;;;;;;;13.30;100.00;99159.97;4836359;29;20046;-95
2023/08/07 01:50:21;;;;;;;0.00;0.00;;;;;;;13.56;100.00;99199.97;4828326;29;20050;-95
2023/08/07 01:52:47;;;;;;;0.00;0.00;;;;;;;13.56;100.00;99208.34;4851176;29;20037;-96
2023/08/07 01:55:16;;;;;;;0.35;0.35;;;;;;;13.33;100.00;99167.38;4835628;29;20050;-95
2023/08/07 01:57:49;;;;;;;0.00;0.00;;;;;;;13.21;100.00;99157.25;4824115;29;20062;-95
2023/08/07 02:00:15;;;;;;;0.00;0.00;;;;;;;13.22;100.00;99162.38;4817410;29;20053;-95
2023/08/07 02:02:45;;;;;;;0.10;0.10;;;;;;;13.40;100.00;99197.63;4810701;29;20038;-96
2023/08/07 02:05:11;;;;;;;0.00;0.00;;;;;;;13.39;100.00;99196.09;4831831;29;20064;-96
2023/08/07 02:07:36;;;;;;;0.17;0.17;;;;;;;13.13;100.00;99161.66;4829352;29;20049;-96
2023/08/07 02:10:04;;;;;;;0.05;0.05;;;;;;;13.09;100.00;99157.00;4822004;29;20050;-96
2023/08/07 02:12:33;;;;;;;0.10;0.10;;;;;;;13.04;100.00;99156.88;4816478;29;20042;-96
2023/08/07 02:15:00;;;;;;;0.08;0.08;;;;;;;13.03;100.00;99158.13;4831829;29;20064;-96
2023/08/07 02:17:30;;;;;;;0.00;0.00;;;;;;;12.97;100.00;99163.59;4811773;29;20061;-95
2023/08/07 02:19:56;;;;;;;0.20;0.20;;;;;;;12.90;100.00;99169.50;4854743;29;20050;-95
2023/08/07 02:22:22;;;;;;;0.08;0.08;;;;;;;12.92;100.00;99169.81;4832427;29;20039;-96
2023/08/07 02:24:48;;;;;;;0.15;0.15;;;;;;;12.91;100.00;99173.81;4837246;29;20049;-95
2023/08/07 02:27:14;;;;;;;0.00;0.00;;;;;;;12.97;100.00;99176.75;4809115;29;20045;-96
2023/08/07 02:29:40;;;;;;;0.00;0.00;;;;;;;13.25;100.00;99221.91;4831824;29;20042;-96
2023/08/07 02:32:06;;;;;;;0.00;0.00;;;;;;;13.02;100.00;99201.16;4827232;29;20041;-96
2023/08/07 02:34:32;;;;;;;0.28;0.28;;;;;;;12.96;100.00;99201.03;4844906;29;20049;-95
2023/08/07 02:36:58;;;;;;;0.00;0.00;;;;;;;12.84;100.00;99173.41;4832173;29;20038;-95
2023/08/07 02:39:25;;;;;;;0.10;0.10;;;;;;;13.00;100.00;99193.25;4818320;29;20054;-96
2023/08/07 02:41:51;;;;;;;0.30;0.30;;;;;;;12.72;100.00;99158.50;4810611;29;20050;-95
2023/08/07 02:44:20;;;;;;;0.30;0.30;;;;;;;12.80;100.00;99173.59;4816805;29;20057;-94
2023/08/07 02:46:45;;;;;;;0.30;0.28;;;;;;;13.12;100.00;99229.72;4816991;29;20121;-96
2023/08/07 02:49:11;;;;;;;0.20;0.15;;;;;;;12.90;100.00;99200.13;4810661;29;20250;-96
2023/08/07 02:51:37;;;;;;;1.55;0.32;;;;;;;12.77;100.00;99173.78;4804846;29;20165;-95
2023/08/07 02:54:03;;;;;;;0.00;0.00;;;;;;;12.87;100.00;99201.06;4826231;29;20046;-96
2023/08/07 02:56:29;;;;;;;0.00;0.00;;;;;;;12.80;100.00;99200.66;4791004;29;20033;-96
2023/08/07 02:58:54;;;;;;;0.00;0.00;;;;;;;12.70;100.00;99199.91;4817270;29;20193;-96
2023/08/07 03:01:21;;;;;;;0.03;0.03;;;;;;;12.61;100.00;99180.50;4809053;29;20046;-96
2023/08/07 03:03:47;;;;;;;0.28;0.28;;;;;;;12.80;100.00;99209.78;4839324;29;20046;-95
2023/08/07 03:06:13;;;;;;;0.00;0.00;;;;;;;12.70;100.00;99196.38;4804547;29;20079;-96
2023/08/07 03:08:38;;;;;;;0.00;0.00;;;;;;;12.88;100.00;99212.97;4801251;29;20054;-95
2023/08/07 03:11:04;;;;;;;0.85;0.60;;;;;;;12.71;100.00;99193.13;4833681;29;20080;-96
2023/08/07 03:13:30;;;;;;;0.40;0.35;;;;;;;12.94;100.00;99222.97;4818219;29;20058;-96
2023/08/07 03:16:00;;;;;;;0.38;0.30;;;;;;;12.71;100.00;99190.34;4799959;29;20469;-96
2023/08/07 03:18:27;;;;;;;0.10;0.10;;;;;;;12.72;100.00;99193.88;4814282;29;20058;-96
2023/08/07 03:20:53;;;;;;;0.30;0.30;;;;;;;12.77;100.00;99201.59;4834348;29;20160;-96
2023/08/07 03:23:18;;;;;;;0.00;0.00;;;;;;;12.95;100.00;99230.09;4817419;29;20077;-96
2023/08/07 03:25:45;;;;;;;0.22;0.20;;;;;;;12.72;100.00;99183.53;4823893;29;20062;-95
2023/08/07 03:28:10;;;;;;;0.00;0.00;;;;;;;12.84;100.00;99202.03;4825007;29;20046;-96
2023/08/07 03:30:37;;;;;;;3.83;1.25;;;;;;;12.78;100.00;99197.59;4824068;29;20055;-95
2023/08/07 03:33:04;;;;;;;0.22;0.22;;;;;;;12.85;100.00;99202.78;4810633;29;20058;-95
2023/08/07 03:35:30;;;;;;;0.05;0.05;;;;;;;12.80;100.00;99193.06;4821092;29;20564;-96
2023/08/07 03:37:56;;;;;;;0.00;0.00;;;;;;;12.77;100.00;99201.59;4816429;29;20053;-96
2023/08/07 03:40:22;;;;;;;0.00;0.00;;;;;;;12.80;100.00;99215.34;4817040;29;20082;-96
2023/08/07 03:42:48;;;;;;;0.38;0.38;;;;;;;12.80;100.00;99226.47;4823452;29;20370;-96
2023/08/07 03:45:14;;;;;;;0.00;0.00;;;;;;;12.62;100.00;99212.63;4812579;29;20050;-95
2023/08/07 03:47:40;;;;;;;0.20;0.20;;;;;;;12.72;100.00;99233.63;4824816;29;20061;-95
2023/08/07 03:50:06;;;;;;;0.10;0.10;;;;;;;12.87;100.00;99265.09;4824065;29;20144;-96
2023/08/07 03:52:32;;;;;;;0.13;0.13;;;;;;;12.64;100.00;99232.41;4837269;29;20037;-95
2023/08/07 03:54:59;;;;;;;0.00;0.00;;;;;;;12.43;100.00;99217.50;4801929;29;20524;-95
2023/08/07 03:57:25;;;;;;;0.10;0.10;;;;;;;12.55;100.00;99251.91;4812147;29;20062;-96
2023/08/07 03:59:51;;;;;;;0.10;0.10;;;;;;;12.51;100.00;99240.97;4815519;29;20042;-96
2023/08/07 04:02:16;;;;;;;0.10;0.10;;;;;;;12.45;100.00;99250.44;4829435;29;20188;-95
2023/08/07 04:04:42;;;;;;;0.63;0.63;;;;;;;12.49;100.00;99253.81;4830468;29;20045;-96
2023/08/07 04:07:08;;;;;;;0.00;0.00;;;;;;;12.42;100.00;99237.44;4799612;29;20317;-96
2023/08/07 04:09:33;;;;;;;1.35;0.55;;;;;;;12.58;100.00;99259.31;4828748;29;20049;-95
2023/08/07 04:11:59;;;;;;;0.15;0.15;;;;;;;12.59;100.00;99274.78;4824502;29;20161;-95
2023/08/07 04:14:25;;;;;;;0.10;0.10;;;;;;;12.32;100.00;99233.16;4812443;29;20038;-96
2023/08/07 04:16:51;;;;;;;0.00;0.00;;;;;;;12.54;100.00;99272.63;4832890;29;20057;-95
2023/08/07 04:19:17;;;;;;;0.00;0.00;;;;;;;12.26;100.00;99229.44;4814175;29;20042;-96
2023/08/07 04:21:43;;;;;;;0.20;0.20;;;;;;;12.36;100.00;99244.88;4812068;29;20080;-96
2023/08/07 04:24:10;;;;;;;0.05;0.05;;;;;;;12.27;100.00;99231.00;4816532;29;20046;-96
2023/08/07 04:26:36;;;;;;;0.10;0.10;;;;;;;12.56;100.00;99270.16;4821940;29;20571;-96
2023/08/07 04:29:02;;;;;;;0.10;0.10;;;;;;;12.38;100.00;99242.38;4811241;29;20046;-95
2023/08/07 04:31:30;;;;;;;0.15;0.15;;;;;;;12.43;100.00;99250.09;4809543;29;20053;-95
2023/08/07 04:33:57;;;;;;;0.00;0.00;;;;;;;12.31;100.00;99231.59;4820679;29;20515;-96
2023/08/07 04:36:22;;;;;;;0.00;0.00;;;;;;;12.45;100.00;99253.22;4822836;29;20058;-95
2023/08/07 04:38:49;;;;;;;0.03;0.03;;;;;;;12.42;100.00;99248.56;4821444;29;20147;-95
2023/08/07 04:41:16;;;;;;;0.10;0.10;;;;;;;12.52;100.00;99248.06;4832263;29;20072;-96
2023/08/07 04:43:42;;;;;;;0.00;0.00;;;;;;;12.57;100.00;99253.00;4818023;29;20113;-96
2023/08/07 04:46:12;;;;;;;0.47;0.30;;;;;;;12.50;100.00;99249.78;4820124;29;20096;-96
2023/08/07 04:48:37;;;;;;;0.00;0.00;;;;;;;12.57;100.00;99261.34;4811161;29;20073;-94
2023/08/07 04:51:03;;;;;;;0.10;0.10;;;;;;;12.34;100.00;99231.44;4808794;29;20156;-96
2023/08/07 04:53:29;;;;;;;0.00;0.00;;;;;;;12.37;100.00;99224.19;4826301;29;20043;-96
2023/08/07 04:55:55;;;;;;;0.00;0.00;;;;;;;12.53;100.00;99237.72;4809569;29;20043;-96
2023/08/07 04:58:21;;;;;;;0.00;0.00;;;;;;;12.49;100.00;99237.13;4815718;29;20051;-93
2023/08/07 05:00:47;;;;;;;0.40;0.30;;;;;;;12.81;100.00;99275.31;4805597;29;20505;-93
2023/08/07 05:03:12;;;;;;;0.30;0.30;;;;;;;12.93;100.00;99271.56;4837142;29;20492;-93
2023/08/07 05:05:38;;;;;;;0.20;0.20;;;;;;;12.67;100.00;99236.25;4834360;29;20057;-94
2023/08/07 05:08:03;;;;;;;0.10;0.10;;;;;;;12.94;100.00;99280.69;4840830;29;20060;-93
2023/08/07 05:10:29;;;;;;;0.20;0.20;;;;;;;12.86;100.00;99269.09;4832546;29;21355;-95
2023/08/07 05:12:55;;;;;;;0.47;0.47;;;;;;;13.03;100.00;99286.97;4813661;29;20062;-95
2023/08/07 05:15:25;;;;;;;0.05;0.05;;;;;;;13.18;100.00;99297.44;4824646;29;20513;-94
2023/08/07 05:17:51;;;;;;;0.20;0.20;;;;;;;13.22;100.00;99287.69;4825287;29;20053;-96
2023/08/07 05:20:17;;;;;;;0.60;0.40;;;;;;;13.16;100.00;99294.34;4802547;29;20077;-95
2023/08/07 05:22:43;;;;;;;0.22;0.13;;;;;;;13.22;100.00;99286.91;4814538;29;20069;-94
2023/08/07 05:25:09;;;;;;;0.00;0.00;;;;;;;13.25;100.00;99274.81;4813214;29;20506;-88
2023/08/07 05:27:35;;;;;;;0.10;0.10;;;;;;;13.47;100.00;99280.84;4821048;29;20098;-96
2023/08/07 05:30:01;;;;;;;0.00;0.00;;;;;;;13.75;100.00;99290.53;4840447;29;20065;-96
2023/08/07 05:32:26;;;;;;;0.08;0.08;;;;;;;13.88;100.00;99282.69;4837182;29;20053;-96
2023/08/07 05:34:52;;;;;;;0.10;0.10;;;;;;;14.07;100.00;99288.91;4824353;29;20062;-95
2023/08/07 05:37:18;;;;;;;0.28;0.28;;;;;;;14.18;100.00;99272.38;4814060;29;20041;-95
2023/08/07 05:39:43;;;;;;;0.80;0.80;;;;;;;14.56;100.00;99296.63;4858839;23;20065;-95
2023/08/07 05:42:10;;;;;;;0.10;0.10;;;;;;;14.76;100.00;99293.16;4841598;29;20049;-95
2023/08/07 05:44:35;;;;;;;0.00;0.00;;;;;;;14.86;100.00;99284.19;4821838;29;20057;-94
2023/08/07 05:47:01;;;;;;;0.03;0.03;;;;;;;15.05;100.00;99276.34;4839552;29;20110;-96
2023/08/07 05:49:27;;;;;;;2.53;0.32;;;;;;;15.20;100.00;99279.88;4841646;29;20049;-95
2023/08/07 05:51:53;;;;;;;0.43;0.43;;;;;;;15.50;100.00;99283.34;4824314;29;20049;-95
2023/08/07 05:54:19;;;;;;;0.05;0.05;;;;;;;15.67;100.00;99291.94;4822227;29;20045;-95
2023/08/07 05:56:44;;;;;;;0.10;0.10;;;;;;;15.87;100.00;99294.72;4829340;29;20056;-93
2023/08/07 05:59:10;;;;;;;0.00;0.00;;;;;;;16.03;100.00;99296.16;4841822;29;20036;-94
2023/08/07 06:01:36;;;;;;;0.20;0.20;;;;;;;16.29;100.00;99297.72;4823538;29;20537;-96
2023/08/07 06:04:02;;;;;;;0.00;0.00;;;;;;;16.44;100.00;99296.84;4821669;29;20036;-94
2023/08/07 06:06:28;;;;;;;0.00;0.00;;;;;;;16.75;100.00;99292.03;4838838;29;20553;-94
2023/08/07 06:08:57;;;;;;;0.00;0.00;;;;;;;17.02;100.00;99299.13;4834876;29;20049;-93
2023/08/07 06:11:22;;;;;;;0.38;0.20;;;;;;;17.29;100.00;99291.41;4819920;29;20092;-94
2023/08/07 06:13:49;;;;;;;0.00;0.00;;;;;;;17.36;100.00;99302.91;4837578;29;20437;-91
2023/08/07 06:16:14;;;;;;;0.30;0.30;;;;;;;17.46;100.00;99295.84;4841980;29;20068;-94
2023/08/07 06:18:40;;;;;;;0.10;0.10;;;;;;;17.63;100.00;99296.69;4841936;29;20053;-94
2023/08/07 06:21:06;;;;;;;0.03;0.03;;;;;;;17.92;100.00;99303.19;4843200;29;20421;-93
2023/08/07 06:23:33;;;;;;;0.00;0.00;;;;;;;18.12;100.00;99305.78;4843676;29;20056;-92
2023/08/07 06:25:58;;;;;;;0.10;0.10;;;;;;;18.25;100.00;99311.69;4841942;29;20049;-94
2023/08/07 06:28:24;;;;;;;0.20;0.20;;;;;;;18.46;100.00;99307.41;4841793;29;20060;-95
2023/08/07 06:30:50;;;;;;;0.13;0.13;;;;;;;18.71;100.00;99311.28;4839965;29;20045;-93
2023/08/07 06:33:15;;;;;;;0.20;0.20;;;;;;;18.69;100.00;99307.44;4842967;29;20041;-93
2023/08/07 06:35:42;;;;;;;10.98;2.25;;;;;;;18.61;100.00;99302.34;4820845;29;20053;-92
2023/08/07 06:38:08;;;;;;;0.05;0.05;;;;;;;18.74;100.00;99303.88;4827112;29;20193;-89
2023/08/07 06:40:37;;;;;;;0.00;0.00;;;;;;;19.15;100.00;99326.59;4853066;29;20923;-92
2023/08/07 06:43:03;;;;;;;0.22;0.22;;;;;;;19.26;100.00;99306.88;4874145;29;20060;-93
2023/08/07 06:45:29;;;;;;;0.30;0.30;;;;;;;19.33;100.00;99326.06;4892098;29;20041;-92
2023/08/07 06:47:55;;;;;;;0.20;0.20;;;;;;;19.39;100.00;99310.72;4860740;29;20040;-92
2023/08/07 06:50:21;;;;;;;0.08;0.08;;;;;;;19.78;100.00;99332.34;4895735;29;20055;-93
2023/08/07 06:52:46;;;;;;;0.00;0.00;;;;;;;20.06;100.00;99338.63;4878640;29;20497;-92
2023/08/07 06:55:12;;;;;;;0.00;0.00;;;;;;;20.26;100.00;99343.16;4878076;29;20212;-93
2023/08/07 06:57:38;;;;;;;0.38;0.13;;;;;;;20.57;100.00;99344.78;4891179;29;20057;-93
2023/08/07 07:00:05;;;;;;;0.30;0.20;;;;;;;20.69;100.00;99340.59;4892968;29;20040;-92
2023/08/07 07:02:30;;;;;;;0.20;0.17;;;;;;;20.71;100.00;99347.22;4882148;29;20128;-92
2023/08/07 07:04:56;;;;;;;0.00;0.00;;;;;;;20.63;100.00;99337.03;4892235;29;20180;-92
2023/08/07 07:07:21;;;;;;;0.00;0.00;;;;;;;20.58;100.00;99337.88;4876986;29;20033;-92
2023/08/07 07:09:46;;;;;;;0.40;0.22;;;;;;;20.68;100.00;99356.72;4884943;29;20052;-92
2023/08/07 07:12:12;;;;;;;0.10;0.10;;;;;;;20.86;100.00;99356.09;4879079;29;20049;-91
2023/08/07 07:14:38;;;;;;;0.00;0.00;;;;;;;21.00;100.00;99350.59;4852116;29;20064;-91
2023/08/07 07:17:03;;;;;;;0.00;0.00;;;;;;;20.91;100.00;99358.09;4891618;29;20036;-92
2023/08/07 07:19:29;;;;;;;0.00;0.00;;;;;;;20.84;100.00;99352.25;4886425;29;20105;-91
2023/08/07 07:21:55;;;;;;;0.10;0.10;;;;;;;20.62;100.00;99327.06;4888902;29;20060;-92
2023/08/07 07:24:20;;;;;;;0.00;0.00;;;;;;;20.84;100.00;99364.31;4865325;29;20052;-92
2023/08/07 07:26:46;;;;;;;0.10;0.10;;;;;;;20.93;100.00;99360.41;4892582;29;20084;-92
2023/08/07 07:29:11;;;;;;;0.30;0.30;;;;;;;20.94;100.00;99373.97;4856538;29;20040;-92
2023/08/07 07:31:37;;;;;;;0.10;0.10;;;;;;;21.08;100.00;99366.41;4873345;29;20119;-92
2023/08/07 07:34:02;;;;;;;0.20;0.20;;;;;;;21.26;100.00;99370.66;4883024;29;20040;-92
2023/08/07 07:36:28;;;;;;;0.20;0.10;;;;;;;21.39;100.00;99363.09;4891417;29;20069;-92
2023/08/07 07:38:54;;;;;;;0.30;0.30;;;;;;;21.67;100.00;99364.88;4867077;29;20526;-92
2023/08/07 07:41:23;;;;;;;0.08;0.08;;;;;;;21.96;92.52;99380.25;4861931;29;20048;-92
2023/08/07 07:43:48;;;;;;;0.00;0.00;;;;;;;21.77;92.88;99369.63;4877334;29;20055;-92
2023/08/07 07:46:14;;;;;;;0.00;0.00;;;;;;;21.88;97.43;99377.19;4878218;29;20084;-92
2023/08/07 07:48:39;;;;;;;0.10;0.10;;;;;;;22.17;99.58;99379.19;4874710;29;20483;-92
2023/08/07 07:51:05;;;;;;;0.10;0.10;;;;;;;22.49;79.31;99381.31;4862860;29;20142;-92
2023/08/07 07:53:31;;;;;;;0.10;0.10;;;;;;;22.49;68.48;99379.28;4858608;29;20057;-92
2023/08/07 07:55:56;;;;;;;0.00;0.00;;;;;;;22.33;66.55;99378.19;4875753;29;20060;-93
2023/08/07 07:58:23;;;;;;;0.00;0.00;;;;;;;22.45;68.14;99370.34;4889762;29;20119;-92
2023/08/07 08:00:49;;;;;;;0.00;0.00;;;;;;;22.28;71.38;99381.84;4894151;29;20076;-91
2023/08/07 08:03:14;;;;;;;0.05;0.05;;;;;;;22.25;77.51;99391.41;4872134;29;20480;-92
2023/08/07 08:05:40;;;;;;;0.10;0.10;;;;;;;22.09;73.72;99394.44;4858315;29;20041;-91
2023/08/07 08:08:07;;;;;;;0.47;0.45;;;;;;;21.86;73.31;99376.97;4884321;29;20044;-92
2023/08/07 08:10:33;;;;;;;0.00;0.00;;;;;;;22.04;75.75;99387.56;4887217;29;20537;-91
2023/08/07 08:12:59;;;;;;;0.00;0.00;;;;;;;22.46;66.95;99396.53;4871096;29;20060;-91
2023/08/07 08:15:25;;;;;;;0.10;0.10;;;;;;;22.78;57.76;99397.38;4893902;29;20104;-91
2023/08/07 08:17:50;;;;;;;0.40;0.40;;;;;;;23.00;56.19;99404.78;4876200;29;20048;-92
2023/08/07 08:20:18;;;;;;;0.00;0.00;;;;;;;22.97;48.95;99403.78;4870570;29;20048;-92
2023/08/07 08:22:46;;;;;;;0.00;0.00;;;;;;;22.72;49.67;99410.84;4871404;29;20695;-93
2023/08/07 08:25:12;;;;;;;0.00;0.00;;;;;;;22.55;52.89;99396.94;4866982;29;20051;-91
2023/08/07 08:27:38;;;;;;;0.22;0.20;;;;;;;22.53;52.28;99410.06;4874841;29;20501;-91
2023/08/07 08:30:04;;;;;;;0.00;0.00;;;;;;;22.34;52.66;99415.69;4866701;29;20108;-93
2023/08/07 08:32:30;;;;;;;0.05;0.05;;;;;;;22.24;59.00;99409.66;4884923;29;20037;-91
2023/08/07 08:34:55;;;;;;;0.10;0.10;;;;;;;22.03;58.49;99400.16;4860937;29;20394;-91
2023/08/07 08:37:21;;;;;;;0.00;0.00;;;;;;;22.08;61.99;99409.88;4887748;29;20055;-91
2023/08/07 08:39:47;;;;;;;0.00;0.00;;;;;;;22.08;65.05;99433.22;4882342;29;20486;-90
2023/08/07 08:42:13;;;;;;;0.15;0.15;;;;;;;21.82;62.88;99428.09;4835278;29;20041;-92
2023/08/07 08:44:39;;;;;;;0.00;0.00;;;;;;;21.74;57.07;99434.84;4850074;29;20572;-92
2023/08/07 08:47:06;;;;;;;0.00;0.00;;;;;;;21.68;53.51;99434.88;4868057;29;20073;-93
2023/08/07 08:49:58;;;;;;;0.00;0.00;;;;;;;21.85;54.36;99431.91;4836111;29;20041;-92
2023/08/07 08:52:24;;;;;;;0.00;0.00;;;;;;;21.95;49.49;99441.59;4821881;29;20065;-92
2023/08/07 08:54:50;;;;;;;0.00;0.00;;;;;;;21.83;48.16;99448.63;4839175;29;20033;-92
2023/08/07 08:57:15;;;;;;;4.20;0.65;;;;;;;21.99;50.54;99452.59;4851248;29;20045;-91
2023/08/07 08:59:42;;;;;;;0.05;0.05;;;;;;;22.28;49.67;99458.13;4840927;29;20041;-91
2023/08/07 09:02:08;;;;;;;0.65;0.63;;;;;;;22.33;48.39;99446.00;4829352;29;20442;-92
2023/08/07 09:04:33;;;;;;;0.00;0.00;;;;;;;22.61;49.59;99453.38;4834742;29;20045;-91
2023/08/07 09:07:00;;;;;;;0.00;0.00;;;;;;;22.68;46.70;99449.94;4843521;29;20057;-91
2023/08/07 09:09:27;;;;;;;0.00;0.00;;;;;;;22.64;44.58;99460.78;4832548;29;20065;-91
2023/08/07 09:11:52;;;;;;;0.00;0.00;;;;;;;22.47;48.26;99468.72;4831148;29;20418;-91
2023/08/07 09:14:22;;;;;;;0.08;0.08;;;;;;;22.25;47.52;99442.25;4849491;29;20048;-91
2023/08/07 09:16:51;;;;;;;0.00;0.00;;;;;;;22.20;48.57;99451.56;4855105;29;20417;-91
2023/08/07 09:19:17;;;;;;;0.00;0.00;;;;;;;22.31;48.00;99471.22;4839567;29;20096;-91
2023/08/07 09:21:42;;;;;;;0.00;0.00;;;;;;;22.12;49.47;99473.22;4838698;29;20041;-92
2023/08/07 09:24:08;;;;;;;0.00;0.00;;;;;;;22.07;47.51;99482.53;4868604;29;20284;-91
2023/08/07 09:26:34;;;;;;;0.00;0.00;;;;;;;21.92;47.75;99487.81;4819701;29;20055;-92
2023/08/07 09:28:59;;;;;;;0.00;0.00;;;;;;;21.87;46.72;99502.72;4829950;29;20052;-91
2023/08/07 09:31:26;;;;;;;0.00;0.00;;;;;;;21.57;46.20;99480.16;4853041;29;20037;-92
2023/08/07 09:33:52;;;;;;;0.22;0.22;;;;;;;21.72;49.76;99503.09;4835816;29;20052;-92
2023/08/07 09:36:18;;;;;;;1.75;0.25;;;;;;;21.65;49.83;99497.28;4857791;29;20049;-90
2023/08/07 09:38:49;;;;;;;0.00;0.00;;;;;;;21.18;48.32;99477.66;4838623;29;20061;-91
2023/08/07 09:41:19;;;;;;;0.00;0.00;;;;;;;21.30;48.89;99506.53;4856122;29;20174;-90
2023/08/07 09:43:45;;;;;;;0.00;0.00;;;;;;;21.23;50.06;99513.50;4866695;29;20044;-91
2023/08/07 09:46:13;;;;;;;0.00;0.00;;;;;;;21.26;51.51;99522.97;4863680;29;20168;-92
2023/08/07 09:48:40;;;;;;;0.00;0.00;;;;;;;21.16;53.98;99499.19;4891230;29;20127;-92
2023/08/07 09:51:06;;;;;;;0.00;0.00;;;;;;;21.47;54.05;99523.34;4870617;29;20056;-91
2023/08/07 09:53:31;;;;;;;0.00;0.00;;;;;;;21.74;51.33;99533.66;4869174;29;20036;-91
2023/08/07 09:55:58;;;;;;;0.10;0.10;;;;;;;21.64;51.51;99504.97;4882143;29;20048;-91
2023/08/07 09:58:24;;;;;;;0.00;0.00;;;;;;;21.85;50.31;99522.25;4889251;29;20424;-92
2023/08/07 10:00:50;;;;;;;0.00;0.00;;;;;;;21.95;49.65;99526.31;4886198;29;20385;-91
2023/08/07 10:03:19;;;;;;;0.00;0.00;;;;;;;22.01;48.32;99535.47;4852652;29;20044;-91
2023/08/07 10:05:44;;;;;;;0.00;0.00;;;;;;;22.11;52.55;99507.66;4887748;29;20053;-91
2023/08/07 10:08:10;;;;;;;0.00;0.00;;;;;;;22.31;49.10;99524.13;4856768;29;20045;-92
2023/08/07 10:10:37;;;;;;;0.00;0.00;;;;;;;22.37;47.17;99524.06;4883674;29;20045;-92
2023/08/07 10:13:03;;;;;;;0.00;0.00;;;;;;;22.93;47.54;99530.59;4867667;29;20200;-91
2023/08/07 10:15:29;;;;;;;0.00;0.00;;;;;;;23.18;42.75;99532.03;4885030;29;20124;-93
2023/08/07 10:17:55;;;;;;;0.00;0.00;;;;;;;23.62;44.06;99538.34;4870211;29;20043;-92
2023/08/07 10:20:21;;;;;;;0.10;0.10;;;;;;;23.85;42.29;99538.75;4867348;29;20497;-93
2023/08/07 10:22:51;;;;;;;0.10;0.10;;;;;;;23.85;40.53;99548.03;4890840;29;20032;-92
2023/08/07 10:25:20;;;;;;;0.00;0.00;;;;;;;24.22;41.18;99552.81;4872195;29;20052;-91
2023/08/07 10:27:47;;;;;;;0.00;0.00;;;;;;;24.23;42.02;99547.88;4882149;29;20052;-91
2023/08/07 10:30:15;;;;;;;0.00;0.00;;;;;;;24.02;40.93;99545.66;4890581;29;20044;-93
2023/08/07 10:32:42;;;;;;;0.00;0.00;;;;;;;23.94;41.11;99544.75;4874064;29;20088;-91
2023/08/07 10:35:08;;;;;;;0.00;0.00;;;;;;;23.45;40.82;99552.03;4884685;29;20035;-91
2023/08/07 10:37:41;;;;;;;1.90;0.50;;;;;;;23.25;42.23;99548.41;4881919;29;20052;-92
2023/08/07 10:40:09;;;;;;;0.00;0.00;;;;;;;22.97;40.62;99556.50;4870789;29;20573;-92
2023/08/07 10:42:54;;;;;;;0.10;0.10;;;;;;;22.96;42.95;99549.34;4883935;29;20048;-93
2023/08/07 10:45:22;;;;;;;0.00;0.00;;;;;;;22.82;43.02;99556.19;4877973;29;20527;-93
2023/08/07 10:48:20;;;;;;;0.10;0.10;;;;;;;22.58;43.07;99553.38;4873017;29;20069;-92
2023/08/07 10:50:57;;;;;;;0.00;0.00;;;;;;;22.81;42.73;99554.66;4858373;29;20068;-92
2023/08/07 10:53:34;;;;;;;0.08;0.08;;;;;;;22.73;41.63;99551.66;4884142;29;20055;-92
2023/08/07 10:56:16;;;;;;;0.00;0.00;;;;;;;22.77;40.68;99554.19;4874137;29;20136;-92
2023/08/07 10:58:42;;;;;;;0.00;0.00;;;;;;;22.74;40.29;99533.41;4870973;29;20044;-92
2023/08/07 11:01:29;;;;;;;0.00;0.00;;;;;;;22.80;39.99;99563.69;4866415;29;20032;-92
2023/08/07 11:04:03;;;;;;;0.00;0.00;;;;;;;23.11;39.45;99537.56;4877252;29;20445;-93
2023/08/07 11:06:33;;;;;;;0.05;0.05;;;;;;;23.34;38.84;99543.66;4886416;29;20281;-91
2023/08/07 11:09:08;;;;;;;0.05;0.05;;;;;;;23.57;39.66;99544.88;4868736;29;20047;-92
2023/08/07 11:11:42;;;;;;;0.00;0.00;;;;;;;23.64;38.77;99532.91;4887035;29;20068;-93
2023/08/07 11:14:09;;;;;;;0.00;0.00;;;;;;;23.54;38.04;99551.59;4883141;29;20096;-92
2023/08/07 11:16:35;;;;;;;0.00;0.00;;;;;;;23.33;39.54;99553.47;4883068;29;20052;-94
2023/08/07 11:19:01;;;;;;;0.00;0.00;;;;;;;22.96;40.65;99548.56;4871269;29;20477;-91
2023/08/07 11:21:27;;;;;;;0.00;0.00;;;;;;;22.84;41.33;99561.31;4871026;29;20406;-91
2023/08/07 11:23:52;;;;;;;0.10;0.10;;;;;;;22.80;41.15;99550.31;4873114;29;20052;-91
2023/08/07 11:26:21;;;;;;;0.22;0.22;;;;;;;22.81;41.03;99548.25;4876419;29;20211;-91
2023/08/07 11:28:47;;;;;;;0.00;0.00;;;;;;;22.58;39.82;99547.72;4882161;29;20044;-90
2023/08/07 11:31:13;;;;;;;0.00;0.00;;;;;;;22.63;41.56;99535.59;4892478;29;20476;-91
2023/08/07 11:33:40;;;;;;;0.00;0.00;;;;;;;22.54;41.80;99552.91;4878059;29;20044;-90
2023/08/07 11:36:13;;;;;;;0.00;0.00;;;;;;;22.61;41.60;99549.47;4890018;29;20051;-92
2023/08/07 11:38:40;;;;;;;0.15;0.15;;;;;;;22.73;41.30;99554.50;4893084;29;20048;-91